sensor_id;sensor_type;location;lat;lon;timestamp;pressure;altitude;pressure_sealevel;temperature
58909;BMP280;44690;48.154;17.102;2022-07-22T00:00:10;99719.00;;;25.06
58909;BMP280;44690;48.154;17.102;2022-07-22T00:01:43;99712.91;;;25.13
58909;BMP280;44690;48.154;17.102;2022-07-22T00:03:15;99713.03;;;25.20
58909;BMP280;44690;48.154;17.102;2022-07-22T00:04:48;99713.06;;;25.22
58909;BMP280;44690;48.154;17.102;2022-07-22T00:06:21;99715.84;;;25.22
58909;BMP280;44690;48.154;17.102;2022-07-22T00:07:53;99703.97;;;25.17
58909;BMP280;44690;48.154;17.102;2022-07-22T00:09:26;99719.22;;;25.16
58909;BMP280;44690;48.154;17.102;2022-07-22T00:10:58;99703.91;;;25.15
58909;BMP280;44690;48.154;17.102;2022-07-22T00:12:31;99713.63;;;25.14
58909;BMP280;44690;48.154;17.102;2022-07-22T00:14:06;99701.88;;;25.18
58909;BMP280;44690;48.154;17.102;2022-07-22T00:15:39;99708.91;;;25.21
58909;BMP280;44690;48.154;17.102;2022-07-22T00:17:13;99689.38;;;25.19
58909;BMP280;44690;48.154;17.102;2022-07-22T00:18:45;99704.06;;;25.23
58909;BMP280;44690;48.154;17.102;2022-07-22T00:20:18;99695.09;;;25.27
58909;BMP280;44690;48.154;17.102;2022-07-22T00:21:51;99693.09;;;25.31
58909;BMP280;44690;48.154;17.102;2022-07-22T00:23:24;99699.34;;;25.32
58909;BMP280;44690;48.154;17.102;2022-07-22T00:24:57;99684.19;;;25.39
58909;BMP280;44690;48.154;17.102;2022-07-22T00:26:31;99693.31;;;25.43
58909;BMP280;44690;48.154;17.102;2022-07-22T00:28:03;99680.16;;;25.46
58909;BMP280;44690;48.154;17.102;2022-07-22T00:29:37;99680.16;;;25.46
58909;BMP280;44690;48.154;17.102;2022-07-22T00:31:09;99681.56;;;25.45
58909;BMP280;44690;48.154;17.102;2022-07-22T00:32:42;99684.97;;;25.43
58909;BMP280;44690;48.154;17.102;2022-07-22T00:34:14;99683.66;;;25.46
58909;BMP280;44690;48.154;17.102;2022-07-22T00:35:47;99689.38;;;25.57
58909;BMP280;44690;48.154;17.102;2022-07-22T00:37:19;99683.81;;;25.57
58909;BMP280;44690;48.154;17.102;2022-07-22T00:38:51;99680.41;;;25.60
58909;BMP280;44690;48.154;17.102;2022-07-22T00:40:24;99676.94;;;25.62
58909;BMP280;44690;48.154;17.102;2022-07-22T00:41:58;99677.63;;;25.58
58909;BMP280;44690;48.154;17.102;2022-07-22T00:43:50;99675.59;;;25.63
58909;BMP280;44690;48.154;17.102;2022-07-22T00:45:26;99680.31;;;25.56
58909;BMP280;44690;48.154;17.102;2022-07-22T00:47:03;99690.00;;;25.53
58909;BMP280;44690;48.154;17.102;2022-07-22T00:48:36;99684.34;;;25.47
58909;BMP280;44690;48.154;17.102;2022-07-22T00:50:08;99692.59;;;25.41
58909;BMP280;44690;48.154;17.102;2022-07-22T00:51:41;99692.47;;;25.35
58909;BMP280;44690;48.154;17.102;2022-07-22T00:53:15;99696.63;;;25.34
58909;BMP280;44690;48.154;17.102;2022-07-22T00:54:47;99694.41;;;25.26
58909;BMP280;44690;48.154;17.102;2022-07-22T00:56:20;99687.31;;;25.19
58909;BMP280;44690;48.154;17.102;2022-07-22T00:57:53;99694.19;;;25.14
58909;BMP280;44690;48.154;17.102;2022-07-22T00:59:26;99695.50;;;25.11
58909;BMP280;44690;48.154;17.102;2022-07-22T01:00:59;99699.56;;;25.06
58909;BMP280;44690;48.154;17.102;2022-07-22T01:02:31;99700.91;;;25.03
58909;BMP280;44690;48.154;17.102;2022-07-22T01:04:04;99708.34;;;24.92
58909;BMP280;44690;48.154;17.102;2022-07-22T01:05:37;99716.47;;;24.82
58909;BMP280;44690;48.154;17.102;2022-07-22T01:07:09;99709.94;;;24.69
58909;BMP280;44690;48.154;17.102;2022-07-22T01:08:43;99716.66;;;24.58
58909;BMP280;44690;48.154;17.102;2022-07-22T01:10:15;99711.53;;;24.47
58909;BMP280;44690;48.154;17.102;2022-07-22T01:11:48;99723.16;;;24.39
58909;BMP280;44690;48.154;17.102;2022-07-22T01:13:20;99711.97;;;24.35
58909;BMP280;44690;48.154;17.102;2022-07-22T01:14:52;99711.81;;;24.27
58909;BMP280;44690;48.154;17.102;2022-07-22T01:16:25;99707.44;;;24.20
58909;BMP280;44690;48.154;17.102;2022-07-22T01:17:58;99706.63;;;24.13
58909;BMP280;44690;48.154;17.102;2022-07-22T01:19:34;99710.59;;;24.06
58909;BMP280;44690;48.154;17.102;2022-07-22T01:21:07;99719.50;;;24.00
58909;BMP280;44690;48.154;17.102;2022-07-22T01:22:40;99723.56;;;23.97
58909;BMP280;44690;48.154;17.102;2022-07-22T01:24:13;99711.56;;;23.89
58909;BMP280;44690;48.154;17.102;2022-07-22T01:25:45;99717.03;;;23.85
58909;BMP280;44690;48.154;17.102;2022-07-22T01:27:18;99709.19;;;23.77
58909;BMP280;44690;48.154;17.102;2022-07-22T01:28:50;99718.78;;;23.72
58909;BMP280;44690;48.154;17.102;2022-07-22T01:30:23;99724.22;;;23.68
58909;BMP280;44690;48.154;17.102;2022-07-22T01:31:55;99715.22;;;23.69
58909;BMP280;44690;48.154;17.102;2022-07-22T01:33:28;99708.19;;;23.64
58909;BMP280;44690;48.154;17.102;2022-07-22T01:35:01;99718.53;;;23.62
58909;BMP280;44690;48.154;17.102;2022-07-22T01:36:34;99705.25;;;23.58
58909;BMP280;44690;48.154;17.102;2022-07-22T01:38:07;99705.19;;;23.54
58909;BMP280;44690;48.154;17.102;2022-07-22T01:39:40;99710.63;;;23.50
58909;BMP280;44690;48.154;17.102;2022-07-22T01:41:12;99711.22;;;23.47
58909;BMP280;44690;48.154;17.102;2022-07-22T01:42:45;99713.28;;;23.48
58909;BMP280;44690;48.154;17.102;2022-07-22T01:44:19;99712.47;;;23.43
58909;BMP280;44690;48.154;17.102;2022-07-22T01:47:27;99717.91;;;23.39
58909;BMP280;44690;48.154;17.102;2022-07-22T01:49:00;99716.47;;;23.36
58909;BMP280;44690;48.154;17.102;2022-07-22T01:50:37;99711.56;;;23.35
58909;BMP280;44690;48.154;17.102;2022-07-22T01:52:09;99723.97;;;23.32
58909;BMP280;44690;48.154;17.102;2022-07-22T01:53:45;99717.59;;;23.27
58909;BMP280;44690;48.154;17.102;2022-07-22T01:55:19;99714.78;;;23.25
58909;BMP280;44690;48.154;17.102;2022-07-22T01:56:51;99720.19;;;23.21
58909;BMP280;44690;48.154;17.102;2022-07-22T01:58:24;99718.72;;;23.18
58909;BMP280;44690;48.154;17.102;2022-07-22T01:59:58;99713.84;;;23.17
58909;BMP280;44690;48.154;17.102;2022-07-22T02:01:31;99718.59;;;23.14
58909;BMP280;44690;48.154;17.102;2022-07-22T02:03:05;99715.03;;;23.10
58909;BMP280;44690;48.154;17.102;2022-07-22T02:04:38;99721.81;;;23.04
58909;BMP280;44690;48.154;17.102;2022-07-22T02:06:10;99725.88;;;23.01
58909;BMP280;44690;48.154;17.102;2022-07-22T02:07:43;99730.56;;;22.97
58909;BMP280;44690;48.154;17.102;2022-07-22T02:09:16;99724.97;;;22.95
58909;BMP280;44690;48.154;17.102;2022-07-22T02:10:52;99726.28;;;22.92
58909;BMP280;44690;48.154;17.102;2022-07-22T02:12:25;99722.00;;;22.87
58909;BMP280;44690;48.154;17.102;2022-07-22T02:13:58;99730.88;;;22.83
58909;BMP280;44690;48.154;17.102;2022-07-22T02:15:33;99727.28;;;22.79
58909;BMP280;44690;48.154;17.102;2022-07-22T02:17:06;99731.28;;;22.73
58909;BMP280;44690;48.154;17.102;2022-07-22T02:18:38;99740.16;;;22.70
58909;BMP280;44690;48.154;17.102;2022-07-22T02:20:13;99744.94;;;22.67
58909;BMP280;44690;48.154;17.102;2022-07-22T02:21:46;99741.38;;;22.65
58909;BMP280;44690;48.154;17.102;2022-07-22T02:23:18;99731.56;;;22.60
58909;BMP280;44690;48.154;17.102;2022-07-22T02:24:51;99732.16;;;22.56
58909;BMP280;44690;48.154;17.102;2022-07-22T02:26:24;99733.41;;;22.53
58909;BMP280;44690;48.154;17.102;2022-07-22T02:27:56;99742.31;;;22.50
58909;BMP280;44690;48.154;17.102;2022-07-22T02:29:29;99749.84;;;22.47
58909;BMP280;44690;48.154;17.102;2022-07-22T02:31:02;99749.13;;;22.47
58909;BMP280;44690;48.154;17.102;2022-07-22T02:32:35;99744.81;;;22.41
58909;BMP280;44690;48.154;17.102;2022-07-22T02:34:07;99735.75;;;22.39
58909;BMP280;44690;48.154;17.102;2022-07-22T02:35:41;99757.09;;;22.36
58909;BMP280;44690;48.154;17.102;2022-07-22T02:37:14;99752.09;;;22.31
58909;BMP280;44690;48.154;17.102;2022-07-22T02:38:49;99751.94;;;22.27
58909;BMP280;44690;48.154;17.102;2022-07-22T02:40:21;99755.97;;;22.22
58909;BMP280;44690;48.154;17.102;2022-07-22T02:41:54;99758.72;;;22.22
58909;BMP280;44690;48.154;17.102;2022-07-22T02:43:26;99764.16;;;22.20
58909;BMP280;44690;48.154;17.102;2022-07-22T02:44:59;99762.66;;;22.17
58909;BMP280;44690;48.154;17.102;2022-07-22T02:46:32;99766.03;;;22.13
58909;BMP280;44690;48.154;17.102;2022-07-22T02:48:14;99767.97;;;22.09
58909;BMP280;44690;48.154;17.102;2022-07-22T02:49:47;99764.28;;;22.02
58909;BMP280;44690;48.154;17.102;2022-07-22T02:51:21;99773.22;;;22.00
58909;BMP280;44690;48.154;17.102;2022-07-22T02:52:53;99767.53;;;21.96
58909;BMP280;44690;48.154;17.102;2022-07-22T02:54:30;99774.28;;;21.91
58909;BMP280;44690;48.154;17.102;2022-07-22T02:56:03;99770.06;;;21.90
58909;BMP280;44690;48.154;17.102;2022-07-22T02:57:36;99773.50;;;21.89
58909;BMP280;44690;48.154;17.102;2022-07-22T02:59:09;99769.25;;;21.86
58909;BMP280;44690;48.154;17.102;2022-07-22T03:00:41;99768.47;;;21.83
58909;BMP280;44690;48.154;17.102;2022-07-22T03:02:14;99767.72;;;21.83
58909;BMP280;44690;48.154;17.102;2022-07-22T03:03:46;99775.34;;;21.82
58909;BMP280;44690;48.154;17.102;2022-07-22T03:05:19;99763.44;;;21.78
58909;BMP280;44690;48.154;17.102;2022-07-22T03:06:56;99771.66;;;21.76
58909;BMP280;44690;48.154;17.102;2022-07-22T03:08:29;99768.81;;;21.73
58909;BMP280;44690;48.154;17.102;2022-07-22T03:10:03;99775.69;;;21.72
58909;BMP280;44690;48.154;17.102;2022-07-22T03:11:37;99773.56;;;21.71
58909;BMP280;44690;48.154;17.102;2022-07-22T03:13:10;99781.78;;;21.69
58909;BMP280;44690;48.154;17.102;2022-07-22T03:14:43;99773.50;;;21.69
58909;BMP280;44690;48.154;17.102;2022-07-22T03:16:15;99772.78;;;21.68
58909;BMP280;44690;48.154;17.102;2022-07-22T03:17:48;99780.31;;;21.66
58909;BMP280;44690;48.154;17.102;2022-07-22T03:19:20;99777.69;;;21.70
58909;BMP280;44690;48.154;17.102;2022-07-22T03:20:56;99776.25;;;21.69
58909;BMP280;44690;48.154;17.102;2022-07-22T03:22:29;99764.50;;;21.68
58909;BMP280;44690;48.154;17.102;2022-07-22T03:24:02;99771.38;;;21.67
58909;BMP280;44690;48.154;17.102;2022-07-22T03:25:36;99767.19;;;21.66
58909;BMP280;44690;48.154;17.102;2022-07-22T03:27:08;99774.84;;;21.68
58909;BMP280;44690;48.154;17.102;2022-07-22T03:28:41;99769.41;;;21.70
58909;BMP280;44690;48.154;17.102;2022-07-22T03:30:14;99790.91;;;21.73
58909;BMP280;44690;48.154;17.102;2022-07-22T03:31:46;99773.69;;;21.75
58909;BMP280;44690;48.154;17.102;2022-07-22T03:33:19;99774.41;;;21.76
58909;BMP280;44690;48.154;17.102;2022-07-22T03:34:53;99775.97;;;21.81
58909;BMP280;44690;48.154;17.102;2022-07-22T03:36:34;99775.34;;;21.82
58909;BMP280;44690;48.154;17.102;2022-07-22T03:38:07;99767.81;;;21.85
58909;BMP280;44690;48.154;17.102;2022-07-22T03:39:40;99769.25;;;21.86
58909;BMP280;44690;48.154;17.102;2022-07-22T03:41:13;99780.28;;;21.86
58909;BMP280;44690;48.154;17.102;2022-07-22T03:42:46;99790.78;;;21.89
58909;BMP280;44690;48.154;17.102;2022-07-22T03:44:19;99788.78;;;21.92
58909;BMP280;44690;48.154;17.102;2022-07-22T03:45:54;99786.94;;;21.98
58909;BMP280;44690;48.154;17.102;2022-07-22T03:47:27;99789.16;;;22.02
58909;BMP280;44690;48.154;17.102;2022-07-22T03:48:59;99794.94;;;22.10
58909;BMP280;44690;48.154;17.102;2022-07-22T03:50:32;99795.78;;;22.15
58909;BMP280;44690;48.154;17.102;2022-07-22T03:52:04;99802.25;;;22.21
58909;BMP280;44690;48.154;17.102;2022-07-22T03:53:37;99795.47;;;22.26
58909;BMP280;44690;48.154;17.102;2022-07-22T03:55:10;99801.16;;;22.30
58909;BMP280;44690;48.154;17.102;2022-07-22T03:56:42;99795.13;;;22.36
58909;BMP280;44690;48.154;17.102;2022-07-22T03:58:16;99805.03;;;22.43
58909;BMP280;44690;48.154;17.102;2022-07-22T03:59:52;99812.09;;;22.48
58909;BMP280;44690;48.154;17.102;2022-07-22T04:01:24;99806.75;;;22.54
58909;BMP280;44690;48.154;17.102;2022-07-22T04:02:57;99802.06;;;22.59
58909;BMP280;44690;48.154;17.102;2022-07-22T04:04:50;99806.94;;;22.60
58909;BMP280;44690;48.154;17.102;2022-07-22T04:06:23;99802.91;;;22.63
58909;BMP280;44690;48.154;17.102;2022-07-22T04:08:03;99805.78;;;22.67
58909;BMP280;44690;48.154;17.102;2022-07-22T04:09:35;99801.69;;;22.68
58909;BMP280;44690;48.154;17.102;2022-07-22T04:11:08;99805.91;;;22.71
58909;BMP280;44690;48.154;17.102;2022-07-22T04:12:41;99799.69;;;22.71
58909;BMP280;44690;48.154;17.102;2022-07-22T04:14:26;99805.91;;;22.71
58909;BMP280;44690;48.154;17.102;2022-07-22T04:16:01;99812.88;;;22.72
58909;BMP280;44690;48.154;17.102;2022-07-22T04:17:34;99814.22;;;22.71
58909;BMP280;44690;48.154;17.102;2022-07-22T04:19:07;99808.09;;;22.75
58909;BMP280;44690;48.154;17.102;2022-07-22T04:20:52;99822.06;;;22.79
58909;BMP280;44690;48.154;17.102;2022-07-22T04:22:33;99813.22;;;22.85
58909;BMP280;44690;48.154;17.102;2022-07-22T04:24:06;99816.19;;;22.91
58909;BMP280;44690;48.154;17.102;2022-07-22T04:25:38;99816.38;;;22.97
58909;BMP280;44690;48.154;17.102;2022-07-22T04:27:11;99822.94;;;23.07
58909;BMP280;44690;48.154;17.102;2022-07-22T04:28:44;99814.44;;;23.25
58909;BMP280;44690;48.154;17.102;2022-07-22T04:30:16;99815.78;;;23.72
58909;BMP280;44690;48.154;17.102;2022-07-22T04:31:52;99825.44;;;24.53
58909;BMP280;44690;48.154;17.102;2022-07-22T04:33:31;99822.44;;;25.40
58909;BMP280;44690;48.154;17.102;2022-07-22T04:35:06;99823.97;;;26.26
58909;BMP280;44690;48.154;17.102;2022-07-22T04:36:43;99820.94;;;27.06
58909;BMP280;44690;48.154;17.102;2022-07-22T04:38:16;99824.47;;;27.73
58909;BMP280;44690;48.154;17.102;2022-07-22T04:40:19;99815.25;;;28.51
58909;BMP280;44690;48.154;17.102;2022-07-22T04:41:52;99819.03;;;29.08
58909;BMP280;44690;48.154;17.102;2022-07-22T04:43:25;99821.94;;;29.65
58909;BMP280;44690;48.154;17.102;2022-07-22T04:44:57;99820.53;;;30.06
58909;BMP280;44690;48.154;17.102;2022-07-22T04:46:30;99821.19;;;30.31
58909;BMP280;44690;48.154;17.102;2022-07-22T04:48:04;99823.94;;;30.49
58909;BMP280;44690;48.154;17.102;2022-07-22T04:49:37;99824.47;;;30.94
58909;BMP280;44690;48.154;17.102;2022-07-22T04:51:11;99822.13;;;31.35
58909;BMP280;44690;48.154;17.102;2022-07-22T04:52:45;99815.59;;;31.65
58909;BMP280;44690;48.154;17.102;2022-07-22T04:54:21;99822.88;;;32.09
58909;BMP280;44690;48.154;17.102;2022-07-22T04:56:00;99811.38;;;32.34
58909;BMP280;44690;48.154;17.102;2022-07-22T04:57:32;99822.28;;;32.64
58909;BMP280;44690;48.154;17.102;2022-07-22T04:59:07;99827.72;;;32.78
58909;BMP280;44690;48.154;17.102;2022-07-22T05:00:40;99817.09;;;32.83
58909;BMP280;44690;48.154;17.102;2022-07-22T05:02:13;99823.69;;;33.14
58909;BMP280;44690;48.154;17.102;2022-07-22T05:03:46;99822.34;;;33.54
58909;BMP280;44690;48.154;17.102;2022-07-22T05:05:22;99833.91;;;33.79
58909;BMP280;44690;48.154;17.102;2022-07-22T05:06:54;99825.13;;;33.97
58909;BMP280;44690;48.154;17.102;2022-07-22T05:08:27;99826.56;;;33.94
58909;BMP280;44690;48.154;17.102;2022-07-22T05:10:00;99817.28;;;34.02
58909;BMP280;44690;48.154;17.102;2022-07-22T05:11:34;99825.97;;;34.27
58909;BMP280;44690;48.154;17.102;2022-07-22T05:13:07;99817.19;;;34.06
58909;BMP280;44690;48.154;17.102;2022-07-22T05:14:40;99824.13;;;33.74
58909;BMP280;44690;48.154;17.102;2022-07-22T05:16:12;99820.19;;;33.59
58909;BMP280;44690;48.154;17.102;2022-07-22T05:17:46;99817.75;;;33.75
58909;BMP280;44690;48.154;17.102;2022-07-22T05:19:24;99816.22;;;33.85
58909;BMP280;44690;48.154;17.102;2022-07-22T05:20:57;99827.31;;;33.91
58909;BMP280;44690;48.154;17.102;2022-07-22T05:22:29;99828.09;;;33.89
58909;BMP280;44690;48.154;17.102;2022-07-22T05:24:12;99818.66;;;34.05
58909;BMP280;44690;48.154;17.102;2022-07-22T05:25:44;99826.78;;;34.54
58909;BMP280;44690;48.154;17.102;2022-07-22T05:27:17;99819.84;;;34.82
58909;BMP280;44690;48.154;17.102;2022-07-22T05:28:50;99820.72;;;34.74
58909;BMP280;44690;48.154;17.102;2022-07-22T05:30:23;99817.56;;;34.88
58909;BMP280;44690;48.154;17.102;2022-07-22T05:31:56;99823.50;;;35.07
58909;BMP280;44690;48.154;17.102;2022-07-22T05:33:29;99822.25;;;35.00
58909;BMP280;44690;48.154;17.102;2022-07-22T05:35:26;99825.16;;;34.96
58909;BMP280;44690;48.154;17.102;2022-07-22T05:36:58;99821.97;;;35.12
58909;BMP280;44690;48.154;17.102;2022-07-22T05:38:32;99826.53;;;35.55
58909;BMP280;44690;48.154;17.102;2022-07-22T05:40:05;99830.97;;;36.01
58909;BMP280;44690;48.154;17.102;2022-07-22T05:41:38;99838.50;;;36.34
58909;BMP280;44690;48.154;17.102;2022-07-22T05:43:13;99823.63;;;36.58
58909;BMP280;44690;48.154;17.102;2022-07-22T05:44:46;99838.09;;;36.93
58909;BMP280;44690;48.154;17.102;2022-07-22T05:46:19;99825.38;;;36.92
58909;BMP280;44690;48.154;17.102;2022-07-22T05:47:52;99826.31;;;37.07
58909;BMP280;44690;48.154;17.102;2022-07-22T05:49:24;99822.97;;;37.44
58909;BMP280;44690;48.154;17.102;2022-07-22T05:51:10;99830.09;;;37.83
58909;BMP280;44690;48.154;17.102;2022-07-22T05:52:42;99821.19;;;38.14
58909;BMP280;44690;48.154;17.102;2022-07-22T05:54:15;99830.69;;;38.25
58909;BMP280;44690;48.154;17.102;2022-07-22T05:55:48;99830.28;;;38.35
58909;BMP280;44690;48.154;17.102;2022-07-22T05:57:21;99831.78;;;38.32
58909;BMP280;44690;48.154;17.102;2022-07-22T05:58:54;99827.97;;;38.21
58909;BMP280;44690;48.154;17.102;2022-07-22T06:00:28;99827.38;;;38.18
58909;BMP280;44690;48.154;17.102;2022-07-22T06:02:02;99826.06;;;38.15
58909;BMP280;44690;48.154;17.102;2022-07-22T06:03:49;99830.44;;;38.31
58909;BMP280;44690;48.154;17.102;2022-07-22T06:05:22;99831.63;;;38.55
58909;BMP280;44690;48.154;17.102;2022-07-22T06:07:10;99831.09;;;38.50
58909;BMP280;44690;48.154;17.102;2022-07-22T06:08:44;99831.81;;;38.51
58909;BMP280;44690;48.154;17.102;2022-07-22T06:10:25;99831.44;;;38.42
58909;BMP280;44690;48.154;17.102;2022-07-22T06:11:57;99825.31;;;38.17
58909;BMP280;44690;48.154;17.102;2022-07-22T06:13:30;99823.22;;;38.15
58909;BMP280;44690;48.154;17.102;2022-07-22T06:15:03;99826.75;;;38.34
58909;BMP280;44690;48.154;17.102;2022-07-22T06:16:35;99830.44;;;38.66
58909;BMP280;44690;48.154;17.102;2022-07-22T06:18:08;99848.06;;;38.88
58909;BMP280;44690;48.154;17.102;2022-07-22T06:19:41;99841.31;;;38.78
58909;BMP280;44690;48.154;17.102;2022-07-22T06:21:14;99844.69;;;38.48
58909;BMP280;44690;48.154;17.102;2022-07-22T06:22:46;99834.56;;;38.15
58909;BMP280;44690;48.154;17.102;2022-07-22T06:24:19;99838.94;;;37.93
58909;BMP280;44690;48.154;17.102;2022-07-22T06:25:58;99842.91;;;38.01
58909;BMP280;44690;48.154;17.102;2022-07-22T06:27:36;99849.59;;;38.30
58909;BMP280;44690;48.154;17.102;2022-07-22T06:29:10;99848.88;;;38.67
58909;BMP280;44690;48.154;17.102;2022-07-22T06:30:43;99847.94;;;38.73
58909;BMP280;44690;48.154;17.102;2022-07-22T06:32:19;99848.44;;;38.61
58909;BMP280;44690;48.154;17.102;2022-07-22T06:33:54;99853.69;;;38.52
58909;BMP280;44690;48.154;17.102;2022-07-22T06:35:29;99849.84;;;38.43
58909;BMP280;44690;48.154;17.102;2022-07-22T06:37:02;99845.69;;;38.21
58909;BMP280;44690;48.154;17.102;2022-07-22T06:38:35;99843.91;;;38.49
58909;BMP280;44690;48.154;17.102;2022-07-22T06:40:35;99844.00;;;38.82
58909;BMP280;44690;48.154;17.102;2022-07-22T06:42:33;99852.22;;;39.07
58909;BMP280;44690;48.154;17.102;2022-07-22T06:44:25;99848.25;;;39.17
58909;BMP280;44690;48.154;17.102;2022-07-22T06:46:21;99836.53;;;39.42
58909;BMP280;44690;48.154;17.102;2022-07-22T06:47:57;99844.22;;;39.77
58909;BMP280;44690;48.154;17.102;2022-07-22T06:49:30;99849.59;;;39.68
58909;BMP280;44690;48.154;17.102;2022-07-22T06:51:03;99850.03;;;39.75
58909;BMP280;44690;48.154;17.102;2022-07-22T06:52:39;99839.38;;;39.58
58909;BMP280;44690;48.154;17.102;2022-07-22T06:54:12;99830.59;;;39.48
58909;BMP280;44690;48.154;17.102;2022-07-22T06:55:44;99839.41;;;39.25
58909;BMP280;44690;48.154;17.102;2022-07-22T06:57:17;99840.41;;;39.34
58909;BMP280;44690;48.154;17.102;2022-07-22T06:58:50;99832.03;;;39.63
58909;BMP280;44690;48.154;17.102;2022-07-22T07:00:22;99834.41;;;39.90
58909;BMP280;44690;48.154;17.102;2022-07-22T07:02:14;99842.84;;;39.92
58909;BMP280;44690;48.154;17.102;2022-07-22T07:03:46;99842.19;;;40.21
58909;BMP280;44690;48.154;17.102;2022-07-22T07:05:19;99840.84;;;40.20
58909;BMP280;44690;48.154;17.102;2022-07-22T07:06:54;99838.88;;;40.31
58909;BMP280;44690;48.154;17.102;2022-07-22T07:08:50;99839.41;;;40.50
58909;BMP280;44690;48.154;17.102;2022-07-22T07:10:22;99823.19;;;40.61
58909;BMP280;44690;48.154;17.102;2022-07-22T07:12:00;99833.22;;;40.60
58909;BMP280;44690;48.154;17.102;2022-07-22T07:13:51;99835.28;;;40.62
58909;BMP280;44690;48.154;17.102;2022-07-22T07:15:24;99832.72;;;40.71
58909;BMP280;44690;48.154;17.102;2022-07-22T07:17:05;99831.63;;;40.63
58909;BMP280;44690;48.154;17.102;2022-07-22T07:18:38;99837.31;;;40.63
58909;BMP280;44690;48.154;17.102;2022-07-22T07:20:11;99834.75;;;40.13
58909;BMP280;44690;48.154;17.102;2022-07-22T07:21:43;99843.97;;;40.14
58909;BMP280;44690;48.154;17.102;2022-07-22T07:23:21;99832.91;;;40.37
58909;BMP280;44690;48.154;17.102;2022-07-22T07:25:02;99832.63;;;40.43
58909;BMP280;44690;48.154;17.102;2022-07-22T07:26:54;99833.97;;;40.30
58909;BMP280;44690;48.154;17.102;2022-07-22T07:28:27;99836.16;;;40.44
58909;BMP280;44690;48.154;17.102;2022-07-22T07:30:06;99823.94;;;40.01
58909;BMP280;44690;48.154;17.102;2022-07-22T07:31:40;99831.16;;;39.84
58909;BMP280;44690;48.154;17.102;2022-07-22T07:33:18;99824.34;;;39.28
58909;BMP280;44690;48.154;17.102;2022-07-22T07:34:51;99826.81;;;38.87
58909;BMP280;44690;48.154;17.102;2022-07-22T07:36:24;99826.69;;;38.18
58909;BMP280;44690;48.154;17.102;2022-07-22T07:37:56;99825.56;;;37.50
58909;BMP280;44690;48.154;17.102;2022-07-22T07:39:29;99827.91;;;37.02
58909;BMP280;44690;48.154;17.102;2022-07-22T07:41:02;99819.03;;;37.15
58909;BMP280;44690;48.154;17.102;2022-07-22T07:42:35;99815.09;;;37.47
58909;BMP280;44690;48.154;17.102;2022-07-22T07:44:16;99812.84;;;37.70
58909;BMP280;44690;48.154;17.102;2022-07-22T07:45:49;99815.09;;;38.05
58909;BMP280;44690;48.154;17.102;2022-07-22T07:47:22;99816.00;;;38.37
58909;BMP280;44690;48.154;17.102;2022-07-22T07:48:54;99817.34;;;38.57
58909;BMP280;44690;48.154;17.102;2022-07-22T07:50:27;99817.97;;;38.59
58909;BMP280;44690;48.154;17.102;2022-07-22T07:52:02;99825.19;;;38.56
58909;BMP280;44690;48.154;17.102;2022-07-22T07:53:36;99820.69;;;38.45
58909;BMP280;44690;48.154;17.102;2022-07-22T07:55:09;99809.97;;;38.28
58909;BMP280;44690;48.154;17.102;2022-07-22T07:56:44;99814.34;;;38.25
58909;BMP280;44690;48.154;17.102;2022-07-22T07:58:20;99814.81;;;38.13
58909;BMP280;44690;48.154;17.102;2022-07-22T07:59:53;99808.72;;;37.86
58909;BMP280;44690;48.154;17.102;2022-07-22T08:01:25;99822.63;;;37.55
58909;BMP280;44690;48.154;17.102;2022-07-22T08:03:18;99806.22;;;37.16
58909;BMP280;44690;48.154;17.102;2022-07-22T08:04:51;99812.84;;;36.87
58909;BMP280;44690;48.154;17.102;2022-07-22T08:06:30;99805.09;;;36.86
58909;BMP280;44690;48.154;17.102;2022-07-22T08:08:02;99805.41;;;36.76
58909;BMP280;44690;48.154;17.102;2022-07-22T08:09:42;99805.81;;;37.07
58909;BMP280;44690;48.154;17.102;2022-07-22T08:11:36;99818.75;;;37.23
58909;BMP280;44690;48.154;17.102;2022-07-22T08:13:28;99802.88;;;36.88
58909;BMP280;44690;48.154;17.102;2022-07-22T08:15:33;99809.56;;;36.56
58909;BMP280;44690;48.154;17.102;2022-07-22T08:17:11;99816.59;;;36.57
58909;BMP280;44690;48.154;17.102;2022-07-22T08:18:44;99802.13;;;36.67
58909;BMP280;44690;48.154;17.102;2022-07-22T08:20:17;99810.47;;;36.73
58909;BMP280;44690;48.154;17.102;2022-07-22T08:21:54;99806.34;;;36.91
58909;BMP280;44690;48.154;17.102;2022-07-22T08:23:35;99810.53;;;37.15
58909;BMP280;44690;48.154;17.102;2022-07-22T08:25:08;99809.22;;;37.32
58909;BMP280;44690;48.154;17.102;2022-07-22T08:26:40;99812.88;;;37.49
58909;BMP280;44690;48.154;17.102;2022-07-22T08:28:13;99804.44;;;37.47
58909;BMP280;44690;48.154;17.102;2022-07-22T08:29:46;99811.00;;;37.42
58909;BMP280;44690;48.154;17.102;2022-07-22T08:31:18;99810.59;;;37.54
58909;BMP280;44690;48.154;17.102;2022-07-22T08:32:53;99799.84;;;37.77
58909;BMP280;44690;48.154;17.102;2022-07-22T08:34:26;99811.78;;;37.99
58909;BMP280;44690;48.154;17.102;2022-07-22T08:35:58;99816.53;;;37.85
58909;BMP280;44690;48.154;17.102;2022-07-22T08:37:31;99816.84;;;37.77
58909;BMP280;44690;48.154;17.102;2022-07-22T08:39:03;99814.38;;;37.46
58909;BMP280;44690;48.154;17.102;2022-07-22T08:40:37;99814.22;;;37.09
58909;BMP280;44690;48.154;17.102;2022-07-22T08:42:10;99809.22;;;36.68
58909;BMP280;44690;48.154;17.102;2022-07-22T08:43:43;99810.28;;;36.56
58909;BMP280;44690;48.154;17.102;2022-07-22T08:45:17;99814.66;;;36.51
58909;BMP280;44690;48.154;17.102;2022-07-22T08:46:52;99808.56;;;36.65
58909;BMP280;44690;48.154;17.102;2022-07-22T08:48:25;99810.25;;;36.79
58909;BMP280;44690;48.154;17.102;2022-07-22T08:50:22;99803.72;;;36.62
58909;BMP280;44690;48.154;17.102;2022-07-22T08:52:27;99808.66;;;36.63
58909;BMP280;44690;48.154;17.102;2022-07-22T08:54:00;99805.88;;;36.84
58909;BMP280;44690;48.154;17.102;2022-07-22T08:55:32;99804.16;;;36.93
58909;BMP280;44690;48.154;17.102;2022-07-22T08:57:07;99810.81;;;36.84
58909;BMP280;44690;48.154;17.102;2022-07-22T08:58:40;99805.47;;;36.74
58909;BMP280;44690;48.154;17.102;2022-07-22T09:00:14;99809.00;;;36.74